Terminal Aerodrome Forecast
Issued by NWS

Home | Current Version | Previous Version | Text Only | Print | Product List | Glossary On
Versions: 1 2 3 4 5 6 7 8 9 10 11 12 13 14 15 16 17
618
FTUS43 KPAH 202339
TAFCGI
TAF
KCGI 202339Z 2100/2124 23008KT P6SM VCSH BKN080
     FM210115 30008KT P6SM -SHRA BKN030
     FM210445 36007KT P6SM BKN040
     FM210800 01006KT P6SM -SHRA SCT040 OVC070
     FM211500 02008KT P6SM OVC080
     FM211730 04008KT P6SM VCSH BKN012 OVC070
      TEMPO 2120/2124 4SM -TSRA BR BKN010CB=

USA.gov is the U.S. government's official web portal to all federal, state and local government web resources and services.